Terminal Aerodrome Forecast
Issued by NWS New Orleans/Baton Rouge, LA

Home | Current Version | Previous Version | Text Only | Print | Product List | Glossary On
Versions: 1 2 3 4 5 6 7 8 9 10 11 12 13
015
FTUS44 KLIX 030521
TAFBTR
TAF
KBTR 030521Z 0306/0406 08010KT P6SM -RA OVC050
      TEMPO 0309/0313 4SM -RA OVC025
     FM031500 09012KT P6SM -RA SCT030 OVC070
     FM040000 09012KT P6SM -SHRA OVC025
     FM040400 09008KT P6SM -SHRA OVC015=

USA.gov is the U.S. government's official web portal to all federal, state and local government web resources and services.